Terminal Aerodrome Forecast
Issued by NWS

Home | Current Version | Previous Version | Text Only | Print | Product List | Glossary On
Versions: 1 2 3 4 5 6 7 8 9 10 11 12 13 14 15 16 17 18 19 20 21
000
FTUS43 KDVN 310600 AAA
TAFBRL
TAF AMD
KBRL 310638Z 3107/0106 00000KT 2SM BR SCT002
      TEMPO 3107/3111 1/2SM FG BKN002
     FM311100 15002KT 1/2SM FG BKN002
     FM311300 18005KT 5SM BR FEW005
     FM311500 19008KT P6SM FEW050=

USA.gov is the U.S. government's official web portal to all federal, state and local government web resources and services.